sensor_id;sensor_type;location;lat;lon;timestamp;P1;durP1;ratioP1;P2;durP2;ratioP2
57111;SDS011;42992;49.084;19.300;2022-08-19T00:02:13;10.40;;;8.00;;
57111;SDS011;42992;49.084;19.300;2022-08-19T00:04:39;9.98;;;8.27;;
57111;SDS011;42992;49.084;19.300;2022-08-19T00:07:06;10.10;;;8.35;;
57111;SDS011;42992;49.084;19.300;2022-08-19T00:09:31;11.27;;;8.70;;
57111;SDS011;42992;49.084;19.300;2022-08-19T00:11:57;11.65;;;9.02;;
57111;SDS011;42992;49.084;19.300;2022-08-19T00:14:23;14.98;;;9.68;;
57111;SDS011;42992;49.084;19.300;2022-08-19T00:16:49;14.15;;;9.32;;
57111;SDS011;42992;49.084;19.300;2022-08-19T00:19:16;10.90;;;9.48;;
57111;SDS011;42992;49.084;19.300;2022-08-19T00:21:42;13.43;;;9.25;;
57111;SDS011;42992;49.084;19.300;2022-08-19T00:24:08;12.65;;;10.30;;
57111;SDS011;42992;49.084;19.300;2022-08-19T00:26:34;11.32;;;9.23;;
57111;SDS011;42992;49.084;19.300;2022-08-19T00:28:59;13.75;;;10.05;;
57111;SDS011;42992;49.084;19.300;2022-08-19T00:31:26;12.55;;;9.35;;
57111;SDS011;42992;49.084;19.300;2022-08-19T00:33:52;14.05;;;9.93;;
57111;SDS011;42992;49.084;19.300;2022-08-19T00:36:18;13.25;;;9.93;;
57111;SDS011;42992;49.084;19.300;2022-08-19T00:38:43;13.13;;;9.77;;
57111;SDS011;42992;49.084;19.300;2022-08-19T00:41:10;11.38;;;9.48;;
57111;SDS011;42992;49.084;19.300;2022-08-19T00:43:37;12.07;;;9.98;;
57111;SDS011;42992;49.084;19.300;2022-08-19T00:46:03;11.77;;;9.43;;
57111;SDS011;42992;49.084;19.300;2022-08-19T00:48:29;10.43;;;8.90;;
57111;SDS011;42992;49.084;19.300;2022-08-19T00:50:55;11.02;;;9.35;;
57111;SDS011;42992;49.084;19.300;2022-08-19T00:53:21;11.45;;;10.02;;
57111;SDS011;42992;49.084;19.300;2022-08-19T00:55:48;14.27;;;10.70;;
57111;SDS011;42992;49.084;19.300;2022-08-19T00:58:15;12.73;;;10.20;;
57111;SDS011;42992;49.084;19.300;2022-08-19T01:00:44;13.60;;;10.18;;
57111;SDS011;42992;49.084;19.300;2022-08-19T01:03:12;10.90;;;9.75;;
57111;SDS011;42992;49.084;19.300;2022-08-19T01:05:39;17.25;;;10.55;;
57111;SDS011;42992;49.084;19.300;2022-08-19T01:08:06;11.57;;;10.23;;
57111;SDS011;42992;49.084;19.300;2022-08-19T01:10:32;16.80;;;9.75;;
57111;SDS011;42992;49.084;19.300;2022-08-19T01:12:59;11.10;;;9.93;;
57111;SDS011;42992;49.084;19.300;2022-08-19T01:15:26;9.57;;;8.55;;
57111;SDS011;42992;49.084;19.300;2022-08-19T01:17:54;8.80;;;7.90;;
57111;SDS011;42992;49.084;19.300;2022-08-19T01:20:21;10.68;;;8.10;;
57111;SDS011;42992;49.084;19.300;2022-08-19T01:22:48;8.70;;;7.80;;
57111;SDS011;42992;49.084;19.300;2022-08-19T01:25:15;10.48;;;8.13;;
57111;SDS011;42992;49.084;19.300;2022-08-19T01:27:42;11.88;;;10.30;;
57111;SDS011;42992;49.084;19.300;2022-08-19T01:30:09;13.15;;;10.52;;
57111;SDS011;42992;49.084;19.300;2022-08-19T01:32:35;11.32;;;10.13;;
57111;SDS011;42992;49.084;19.300;2022-08-19T01:35:01;16.17;;;10.07;;
57111;SDS011;42992;49.084;19.300;2022-08-19T01:37:27;11.98;;;9.93;;
57111;SDS011;42992;49.084;19.300;2022-08-19T01:39:52;12.40;;;10.38;;
57111;SDS011;42992;49.084;19.300;2022-08-19T01:42:18;13.82;;;10.85;;
57111;SDS011;42992;49.084;19.300;2022-08-19T01:44:44;14.77;;;10.15;;
57111;SDS011;42992;49.084;19.300;2022-08-19T01:47:09;11.95;;;10.27;;
57111;SDS011;42992;49.084;19.300;2022-08-19T01:49:35;10.93;;;9.82;;
57111;SDS011;42992;49.084;19.300;2022-08-19T01:52:01;15.32;;;10.52;;
57111;SDS011;42992;49.084;19.300;2022-08-19T01:54:26;13.77;;;10.48;;
57111;SDS011;42992;49.084;19.300;2022-08-19T01:56:52;11.35;;;9.57;;
57111;SDS011;42992;49.084;19.300;2022-08-19T01:59:20;11.93;;;9.50;;
57111;SDS011;42992;49.084;19.300;2022-08-19T02:01:47;12.32;;;9.82;;
57111;SDS011;42992;49.084;19.300;2022-08-19T02:04:12;11.05;;;8.63;;
57111;SDS011;42992;49.084;19.300;2022-08-19T02:06:38;9.70;;;8.40;;
57111;SDS011;42992;49.084;19.300;2022-08-19T02:09:04;9.82;;;8.30;;
57111;SDS011;42992;49.084;19.300;2022-08-19T02:11:31;10.93;;;8.80;;
57111;SDS011;42992;49.084;19.300;2022-08-19T02:13:59;9.18;;;8.15;;
57111;SDS011;42992;49.084;19.300;2022-08-19T02:16:24;13.23;;;10.40;;
57111;SDS011;42992;49.084;19.300;2022-08-19T02:18:49;13.45;;;10.90;;
57111;SDS011;42992;49.084;19.300;2022-08-19T02:21:18;11.73;;;10.50;;
57111;SDS011;42992;49.084;19.300;2022-08-19T02:23:45;13.52;;;11.02;;
57111;SDS011;42992;49.084;19.300;2022-08-19T02:26:10;13.60;;;10.88;;
57111;SDS011;42992;49.084;19.300;2022-08-19T02:28:37;16.65;;;10.93;;
57111;SDS011;42992;49.084;19.300;2022-08-19T02:31:02;12.70;;;10.63;;
57111;SDS011;42992;49.084;19.300;2022-08-19T02:33:28;11.88;;;10.63;;
57111;SDS011;42992;49.084;19.300;2022-08-19T02:35:53;11.25;;;10.05;;
57111;SDS011;42992;49.084;19.300;2022-08-19T02:38:18;12.80;;;9.90;;
57111;SDS011;42992;49.084;19.300;2022-08-19T02:40:50;13.25;;;10.50;;
57111;SDS011;42992;49.084;19.300;2022-08-19T02:43:19;13.63;;;10.55;;
57111;SDS011;42992;49.084;19.300;2022-08-19T02:45:45;13.30;;;11.10;;
57111;SDS011;42992;49.084;19.300;2022-08-19T02:48:10;12.35;;;10.30;;
57111;SDS011;42992;49.084;19.300;2022-08-19T02:50:39;11.85;;;10.65;;
57111;SDS011;42992;49.084;19.300;2022-08-19T02:53:05;12.15;;;10.23;;
57111;SDS011;42992;49.084;19.300;2022-08-19T02:55:31;12.75;;;10.88;;
57111;SDS011;42992;49.084;19.300;2022-08-19T02:57:56;15.18;;;11.20;;
57111;SDS011;42992;49.084;19.300;2022-08-19T03:00:22;13.85;;;10.88;;
57111;SDS011;42992;49.084;19.300;2022-08-19T03:02:48;19.40;;;11.20;;
57111;SDS011;42992;49.084;19.300;2022-08-19T03:05:14;13.13;;;11.20;;
57111;SDS011;42992;49.084;19.300;2022-08-19T03:07:39;17.17;;;11.55;;
57111;SDS011;42992;49.084;19.300;2022-08-19T03:10:04;15.90;;;11.52;;
57111;SDS011;42992;49.084;19.300;2022-08-19T03:12:30;13.30;;;10.35;;
57111;SDS011;42992;49.084;19.300;2022-08-19T03:14:55;14.13;;;11.65;;
57111;SDS011;42992;49.084;19.300;2022-08-19T03:17:21;16.90;;;11.40;;
57111;SDS011;42992;49.084;19.300;2022-08-19T03:19:46;14.98;;;12.15;;
57111;SDS011;42992;49.084;19.300;2022-08-19T03:22:11;13.00;;;10.95;;
57111;SDS011;42992;49.084;19.300;2022-08-19T03:24:37;14.43;;;11.23;;
57111;SDS011;42992;49.084;19.300;2022-08-19T03:27:02;14.70;;;11.73;;
57111;SDS011;42992;49.084;19.300;2022-08-19T03:29:30;14.50;;;12.15;;
57111;SDS011;42992;49.084;19.300;2022-08-19T03:31:57;13.75;;;11.68;;
57111;SDS011;42992;49.084;19.300;2022-08-19T03:34:23;12.75;;;11.20;;
57111;SDS011;42992;49.084;19.300;2022-08-19T03:36:53;14.98;;;11.32;;
57111;SDS011;42992;49.084;19.300;2022-08-19T03:39:19;14.70;;;12.10;;
57111;SDS011;42992;49.084;19.300;2022-08-19T03:41:45;18.25;;;12.32;;
57111;SDS011;42992;49.084;19.300;2022-08-19T03:44:18;14.82;;;11.77;;
57111;SDS011;42992;49.084;19.300;2022-08-19T03:46:49;15.23;;;11.52;;
57111;SDS011;42992;49.084;19.300;2022-08-19T03:49:15;15.50;;;12.52;;
57111;SDS011;42992;49.084;19.300;2022-08-19T03:51:41;16.35;;;13.40;;
57111;SDS011;42992;49.084;19.300;2022-08-19T03:54:08;17.48;;;13.00;;
57111;SDS011;42992;49.084;19.300;2022-08-19T03:56:34;19.77;;;13.18;;
57111;SDS011;42992;49.084;19.300;2022-08-19T03:59:00;18.38;;;14.10;;
57111;SDS011;42992;49.084;19.300;2022-08-19T04:01:27;18.63;;;14.25;;
57111;SDS011;42992;49.084;19.300;2022-08-19T04:03:53;16.02;;;12.60;;
57111;SDS011;42992;49.084;19.300;2022-08-19T04:06:20;15.52;;;13.48;;
57111;SDS011;42992;49.084;19.300;2022-08-19T04:08:46;15.10;;;12.23;;
57111;SDS011;42992;49.084;19.300;2022-08-19T04:11:14;19.45;;;13.25;;
57111;SDS011;42992;49.084;19.300;2022-08-19T04:13:39;17.73;;;12.60;;
57111;SDS011;42992;49.084;19.300;2022-08-19T04:16:05;16.88;;;11.93;;
57111;SDS011;42992;49.084;19.300;2022-08-19T04:18:31;15.98;;;12.15;;
57111;SDS011;42992;49.084;19.300;2022-08-19T04:20:57;16.48;;;12.20;;
57111;SDS011;42992;49.084;19.300;2022-08-19T04:23:23;15.30;;;12.15;;
57111;SDS011;42992;49.084;19.300;2022-08-19T04:25:48;19.20;;;12.88;;
57111;SDS011;42992;49.084;19.300;2022-08-19T04:28:14;15.70;;;13.52;;
57111;SDS011;42992;49.084;19.300;2022-08-19T04:30:43;18.85;;;12.13;;
57111;SDS011;42992;49.084;19.300;2022-08-19T04:33:10;31.02;;;17.17;;
57111;SDS011;42992;49.084;19.300;2022-08-19T04:35:36;21.38;;;13.35;;
57111;SDS011;42992;49.084;19.300;2022-08-19T04:38:01;15.65;;;12.27;;
57111;SDS011;42992;49.084;19.300;2022-08-19T04:40:27;21.60;;;12.07;;
57111;SDS011;42992;49.084;19.300;2022-08-19T04:43:11;16.83;;;13.52;;
57111;SDS011;42992;49.084;19.300;2022-08-19T04:45:41;27.85;;;14.43;;
57111;SDS011;42992;49.084;19.300;2022-08-19T04:48:07;17.90;;;14.77;;
57111;SDS011;42992;49.084;19.300;2022-08-19T04:50:33;22.30;;;15.30;;
57111;SDS011;42992;49.084;19.300;2022-08-19T04:52:58;15.35;;;13.55;;
57111;SDS011;42992;49.084;19.300;2022-08-19T04:55:23;24.60;;;13.90;;
57111;SDS011;42992;49.084;19.300;2022-08-19T04:57:50;18.38;;;14.98;;
57111;SDS011;42992;49.084;19.300;2022-08-19T05:00:16;19.05;;;14.02;;
57111;SDS011;42992;49.084;19.300;2022-08-19T05:02:41;19.30;;;14.52;;
57111;SDS011;42992;49.084;19.300;2022-08-19T05:05:06;21.23;;;15.18;;
57111;SDS011;42992;49.084;19.300;2022-08-19T05:07:32;19.48;;;14.18;;
57111;SDS011;42992;49.084;19.300;2022-08-19T05:09:57;18.35;;;14.40;;
57111;SDS011;42992;49.084;19.300;2022-08-19T05:12:22;16.23;;;14.35;;
57111;SDS011;42992;49.084;19.300;2022-08-19T05:14:48;18.80;;;14.10;;
57111;SDS011;42992;49.084;19.300;2022-08-19T05:17:14;16.27;;;13.38;;
57111;SDS011;42992;49.084;19.300;2022-08-19T05:19:40;16.70;;;13.23;;
57111;SDS011;42992;49.084;19.300;2022-08-19T05:22:24;14.40;;;12.35;;
57111;SDS011;42992;49.084;19.300;2022-08-19T05:25:07;25.13;;;14.10;;
57111;SDS011;42992;49.084;19.300;2022-08-19T05:27:33;19.73;;;14.35;;
57111;SDS011;42992;49.084;19.300;2022-08-19T05:29:59;16.10;;;14.40;;
57111;SDS011;42992;49.084;19.300;2022-08-19T05:32:24;22.23;;;15.02;;
57111;SDS011;42992;49.084;19.300;2022-08-19T05:34:55;17.40;;;13.80;;
57111;SDS011;42992;49.084;19.300;2022-08-19T05:37:20;20.60;;;14.80;;
57111;SDS011;42992;49.084;19.300;2022-08-19T05:39:46;20.15;;;15.02;;
57111;SDS011;42992;49.084;19.300;2022-08-19T05:42:11;17.95;;;14.02;;
57111;SDS011;42992;49.084;19.300;2022-08-19T05:44:38;26.52;;;15.48;;
57111;SDS011;42992;49.084;19.300;2022-08-19T05:47:05;20.88;;;14.60;;
57111;SDS011;42992;49.084;19.300;2022-08-19T05:49:31;23.83;;;15.55;;
57111;SDS011;42992;49.084;19.300;2022-08-19T05:51:57;19.92;;;14.00;;
57111;SDS011;42992;49.084;19.300;2022-08-19T05:54:23;19.30;;;14.52;;
57111;SDS011;42992;49.084;19.300;2022-08-19T05:56:48;17.27;;;14.52;;
57111;SDS011;42992;49.084;19.300;2022-08-19T05:59:14;21.52;;;14.05;;
57111;SDS011;42992;49.084;19.300;2022-08-19T06:01:41;20.23;;;15.35;;
57111;SDS011;42992;49.084;19.300;2022-08-19T06:04:06;22.42;;;15.10;;
57111;SDS011;42992;49.084;19.300;2022-08-19T06:06:32;17.02;;;14.20;;
57111;SDS011;42992;49.084;19.300;2022-08-19T06:09:03;16.80;;;14.25;;
57111;SDS011;42992;49.084;19.300;2022-08-19T06:11:36;16.77;;;13.73;;
57111;SDS011;42992;49.084;19.300;2022-08-19T06:14:04;21.70;;;14.88;;
57111;SDS011;42992;49.084;19.300;2022-08-19T06:16:29;20.60;;;14.35;;
57111;SDS011;42992;49.084;19.300;2022-08-19T06:18:57;19.13;;;13.50;;
57111;SDS011;42992;49.084;19.300;2022-08-19T06:21:25;16.90;;;14.35;;
57111;SDS011;42992;49.084;19.300;2022-08-19T06:23:52;18.08;;;13.43;;
57111;SDS011;42992;49.084;19.300;2022-08-19T06:26:18;20.35;;;13.88;;
57111;SDS011;42992;49.084;19.300;2022-08-19T06:28:46;19.48;;;13.80;;
57111;SDS011;42992;49.084;19.300;2022-08-19T06:31:16;17.45;;;13.75;;
57111;SDS011;42992;49.084;19.300;2022-08-19T06:33:42;18.90;;;13.20;;
57111;SDS011;42992;49.084;19.300;2022-08-19T06:36:15;20.33;;;13.85;;
57111;SDS011;42992;49.084;19.300;2022-08-19T06:38:40;20.20;;;14.63;;
57111;SDS011;42992;49.084;19.300;2022-08-19T06:41:09;15.73;;;13.38;;
57111;SDS011;42992;49.084;19.300;2022-08-19T06:43:34;17.33;;;13.75;;
57111;SDS011;42992;49.084;19.300;2022-08-19T06:46:01;19.02;;;13.20;;
57111;SDS011;42992;49.084;19.300;2022-08-19T06:48:26;14.88;;;12.23;;
57111;SDS011;42992;49.084;19.300;2022-08-19T06:50:51;16.63;;;13.30;;
57111;SDS011;42992;49.084;19.300;2022-08-19T06:53:17;16.73;;;13.60;;
57111;SDS011;42992;49.084;19.300;2022-08-19T06:55:44;19.50;;;14.30;;
57111;SDS011;42992;49.084;19.300;2022-08-19T06:58:09;14.85;;;13.15;;
57111;SDS011;42992;49.084;19.300;2022-08-19T07:00:35;18.85;;;13.25;;
57111;SDS011;42992;49.084;19.300;2022-08-19T07:03:01;17.33;;;13.30;;
57111;SDS011;42992;49.084;19.300;2022-08-19T07:05:27;16.00;;;13.15;;
57111;SDS011;42992;49.084;19.300;2022-08-19T07:07:52;16.15;;;13.18;;
57111;SDS011;42992;49.084;19.300;2022-08-19T07:10:18;18.23;;;13.23;;
57111;SDS011;42992;49.084;19.300;2022-08-19T07:12:44;15.00;;;12.90;;
57111;SDS011;42992;49.084;19.300;2022-08-19T07:15:09;16.17;;;12.43;;
57111;SDS011;42992;49.084;19.300;2022-08-19T07:17:35;14.32;;;12.60;;
57111;SDS011;42992;49.084;19.300;2022-08-19T07:20:04;14.25;;;12.77;;
57111;SDS011;42992;49.084;19.300;2022-08-19T07:22:30;18.40;;;11.88;;
57111;SDS011;42992;49.084;19.300;2022-08-19T07:24:56;15.98;;;12.77;;
57111;SDS011;42992;49.084;19.300;2022-08-19T07:27:21;14.88;;;13.25;;
57111;SDS011;42992;49.084;19.300;2022-08-19T07:29:46;15.07;;;13.15;;
57111;SDS011;42992;49.084;19.300;2022-08-19T07:32:11;16.30;;;12.68;;
57111;SDS011;42992;49.084;19.300;2022-08-19T07:34:37;14.63;;;12.80;;
57111;SDS011;42992;49.084;19.300;2022-08-19T07:37:05;16.13;;;12.75;;
57111;SDS011;42992;49.084;19.300;2022-08-19T07:39:32;14.15;;;12.32;;
57111;SDS011;42992;49.084;19.300;2022-08-19T07:41:58;18.83;;;12.63;;
57111;SDS011;42992;49.084;19.300;2022-08-19T07:44:23;15.13;;;12.02;;
57111;SDS011;42992;49.084;19.300;2022-08-19T07:46:51;18.05;;;12.32;;
57111;SDS011;42992;49.084;19.300;2022-08-19T07:49:17;15.98;;;12.35;;
57111;SDS011;42992;49.084;19.300;2022-08-19T07:51:45;15.85;;;11.90;;
57111;SDS011;42992;49.084;19.300;2022-08-19T07:54:10;15.32;;;11.95;;
57111;SDS011;42992;49.084;19.300;2022-08-19T07:56:36;13.23;;;11.88;;
57111;SDS011;42992;49.084;19.300;2022-08-19T07:59:02;14.00;;;10.95;;
57111;SDS011;42992;49.084;19.300;2022-08-19T08:01:27;15.73;;;12.02;;
57111;SDS011;42992;49.084;19.300;2022-08-19T08:03:53;17.13;;;11.98;;
57111;SDS011;42992;49.084;19.300;2022-08-19T08:06:37;13.90;;;11.15;;
57111;SDS011;42992;49.084;19.300;2022-08-19T08:09:24;16.33;;;11.27;;
57111;SDS011;42992;49.084;19.300;2022-08-19T08:11:54;17.48;;;11.00;;
57111;SDS011;42992;49.084;19.300;2022-08-19T08:14:24;14.70;;;10.55;;
57111;SDS011;42992;49.084;19.300;2022-08-19T08:16:50;14.43;;;10.60;;
57111;SDS011;42992;49.084;19.300;2022-08-19T08:19:17;14.90;;;10.10;;
57111;SDS011;42992;49.084;19.300;2022-08-19T08:21:42;12.80;;;10.20;;
57111;SDS011;42992;49.084;19.300;2022-08-19T08:24:08;14.07;;;9.73;;
57111;SDS011;42992;49.084;19.300;2022-08-19T08:26:33;13.25;;;9.70;;
57111;SDS011;42992;49.084;19.300;2022-08-19T08:28:58;13.30;;;9.57;;
57111;SDS011;42992;49.084;19.300;2022-08-19T08:31:24;11.32;;;9.77;;
57111;SDS011;42992;49.084;19.300;2022-08-19T08:33:49;11.43;;;8.93;;
57111;SDS011;42992;49.084;19.300;2022-08-19T08:36:15;15.27;;;9.75;;
57111;SDS011;42992;49.084;19.300;2022-08-19T08:38:41;14.70;;;9.02;;
57111;SDS011;42992;49.084;19.300;2022-08-19T08:43:51;14.25;;;9.48;;
57111;SDS011;42992;49.084;19.300;2022-08-19T08:51:22;13.70;;;9.10;;
57111;SDS011;42992;49.084;19.300;2022-08-19T08:53:49;9.40;;;7.78;;
57111;SDS011;42992;49.084;19.300;2022-08-19T08:56:15;11.50;;;7.75;;
57111;SDS011;42992;49.084;19.300;2022-08-19T09:01:10;10.43;;;7.72;;
57111;SDS011;42992;49.084;19.300;2022-08-19T09:03:36;10.98;;;8.38;;
57111;SDS011;42992;49.084;19.300;2022-08-19T09:11:09;9.65;;;7.15;;
57111;SDS011;42992;49.084;19.300;2022-08-19T09:16:07;12.18;;;7.55;;
57111;SDS011;42992;49.084;19.300;2022-08-19T09:18:41;10.43;;;7.65;;
57111;SDS011;42992;49.084;19.300;2022-08-19T09:21:07;8.48;;;7.03;;
57111;SDS011;42992;49.084;19.300;2022-08-19T09:23:34;12.93;;;7.88;;
57111;SDS011;42992;49.084;19.300;2022-08-19T09:25:59;10.73;;;8.27;;
57111;SDS011;42992;49.084;19.300;2022-08-19T09:28:24;11.32;;;8.35;;
57111;SDS011;42992;49.084;19.300;2022-08-19T09:30:50;12.52;;;8.00;;
57111;SDS011;42992;49.084;19.300;2022-08-19T09:33:16;12.25;;;8.15;;
57111;SDS011;42992;49.084;19.300;2022-08-19T09:35:41;12.40;;;7.70;;
57111;SDS011;42992;49.084;19.300;2022-08-19T09:38:06;15.23;;;7.63;;
57111;SDS011;42992;49.084;19.300;2022-08-19T09:40:31;9.18;;;7.28;;
57111;SDS011;42992;49.084;19.300;2022-08-19T09:42:57;11.02;;;7.78;;
57111;SDS011;42992;49.084;19.300;2022-08-19T09:45:25;14.82;;;7.95;;
57111;SDS011;42992;49.084;19.300;2022-08-19T09:47:51;13.23;;;8.55;;
57111;SDS011;42992;49.084;19.300;2022-08-19T09:50:17;9.63;;;7.80;;
57111;SDS011;42992;49.084;19.300;2022-08-19T09:52:43;13.45;;;9.13;;
57111;SDS011;42992;49.084;19.300;2022-08-19T09:55:09;10.77;;;7.50;;
57111;SDS011;42992;49.084;19.300;2022-08-19T09:57:35;8.80;;;6.32;;
57111;SDS011;42992;49.084;19.300;2022-08-19T10:00:00;11.02;;;6.80;;
57111;SDS011;42992;49.084;19.300;2022-08-19T10:02:26;6.95;;;6.25;;
57111;SDS011;42992;49.084;19.300;2022-08-19T10:04:51;7.25;;;6.40;;
57111;SDS011;42992;49.084;19.300;2022-08-19T10:07:36;9.70;;;6.18;;
57111;SDS011;42992;49.084;19.300;2022-08-19T10:10:02;10.93;;;6.05;;
57111;SDS011;42992;49.084;19.300;2022-08-19T10:12:28;10.15;;;6.47;;
57111;SDS011;42992;49.084;19.300;2022-08-19T10:14:53;8.10;;;5.63;;
57111;SDS011;42992;49.084;19.300;2022-08-19T10:17:19;7.78;;;6.32;;
57111;SDS011;42992;49.084;19.300;2022-08-19T10:19:44;8.68;;;6.80;;
57111;SDS011;42992;49.084;19.300;2022-08-19T10:22:09;11.40;;;6.30;;
57111;SDS011;42992;49.084;19.300;2022-08-19T10:24:38;6.75;;;5.95;;
57111;SDS011;42992;49.084;19.300;2022-08-19T10:27:04;8.13;;;6.18;;
57111;SDS011;42992;49.084;19.300;2022-08-19T10:29:30;12.65;;;6.28;;
57111;SDS011;42992;49.084;19.300;2022-08-19T10:31:57;10.25;;;6.28;;
57111;SDS011;42992;49.084;19.300;2022-08-19T10:34:23;10.77;;;6.10;;
57111;SDS011;42992;49.084;19.300;2022-08-19T10:36:49;10.02;;;5.32;;
57111;SDS011;42992;49.084;19.300;2022-08-19T10:39:14;7.00;;;5.05;;
57111;SDS011;42992;49.084;19.300;2022-08-19T10:41:40;9.55;;;5.22;;
57111;SDS011;42992;49.084;19.300;2022-08-19T10:44:09;8.77;;;5.47;;
57111;SDS011;42992;49.084;19.300;2022-08-19T10:46:35;8.88;;;5.57;;
57111;SDS011;42992;49.084;19.300;2022-08-19T10:49:02;10.35;;;5.38;;
57111;SDS011;42992;49.084;19.300;2022-08-19T10:51:28;8.50;;;5.10;;
57111;SDS011;42992;49.084;19.300;2022-08-19T10:54:12;8.30;;;5.72;;
57111;SDS011;42992;49.084;19.300;2022-08-19T10:56:37;9.75;;;5.50;;
57111;SDS011;42992;49.084;19.300;2022-08-19T10:59:19;10.18;;;5.30;;
57111;SDS011;42992;49.084;19.300;2022-08-19T11:01:45;6.75;;;5.45;;
57111;SDS011;42992;49.084;19.300;2022-08-19T11:04:11;10.13;;;5.72;;
57111;SDS011;42992;49.084;19.300;2022-08-19T11:06:39;7.65;;;5.60;;
57111;SDS011;42992;49.084;19.300;2022-08-19T11:09:06;7.65;;;5.03;;
57111;SDS011;42992;49.084;19.300;2022-08-19T11:11:31;8.57;;;5.03;;
57111;SDS011;42992;49.084;19.300;2022-08-19T11:13:57;7.28;;;4.60;;
57111;SDS011;42992;49.084;19.300;2022-08-19T11:16:23;8.68;;;4.97;;
57111;SDS011;42992;49.084;19.300;2022-08-19T11:18:54;7.50;;;5.05;;
57111;SDS011;42992;49.084;19.300;2022-08-19T11:21:24;11.73;;;5.97;;
57111;SDS011;42992;49.084;19.300;2022-08-19T11:23:51;8.82;;;5.07;;
57111;SDS011;42992;49.084;19.300;2022-08-19T11:26:17;8.05;;;5.22;;
57111;SDS011;42992;49.084;19.300;2022-08-19T11:28:43;9.50;;;4.97;;
57111;SDS011;42992;49.084;19.300;2022-08-19T11:31:12;7.43;;;5.30;;
57111;SDS011;42992;49.084;19.300;2022-08-19T11:33:37;7.80;;;4.90;;
57111;SDS011;42992;49.084;19.300;2022-08-19T11:36:03;8.90;;;5.28;;
57111;SDS011;42992;49.084;19.300;2022-08-19T11:38:28;7.07;;;4.88;;
57111;SDS011;42992;49.084;19.300;2022-08-19T11:40:58;9.43;;;5.20;;
57111;SDS011;42992;49.084;19.300;2022-08-19T11:43:23;7.82;;;4.82;;
57111;SDS011;42992;49.084;19.300;2022-08-19T11:45:49;9.50;;;5.32;;
57111;SDS011;42992;49.084;19.300;2022-08-19T11:48:14;8.88;;;5.18;;
57111;SDS011;42992;49.084;19.300;2022-08-19T11:50:39;11.38;;;5.35;;
57111;SDS011;42992;49.084;19.300;2022-08-19T11:53:06;7.80;;;5.15;;
57111;SDS011;42992;49.084;19.300;2022-08-19T11:55:31;8.90;;;5.38;;
57111;SDS011;42992;49.084;19.300;2022-08-19T11:57:56;9.25;;;5.35;;
57111;SDS011;42992;49.084;19.300;2022-08-19T12:00:22;7.60;;;4.97;;
57111;SDS011;42992;49.084;19.300;2022-08-19T12:02:47;10.13;;;4.90;;
57111;SDS011;42992;49.084;19.300;2022-08-19T12:05:12;9.82;;;5.10;;
57111;SDS011;42992;49.084;19.300;2022-08-19T12:07:38;11.00;;;5.43;;
57111;SDS011;42992;49.084;19.300;2022-08-19T12:10:03;10.20;;;5.57;;
57111;SDS011;42992;49.084;19.300;2022-08-19T12:12:28;8.60;;;5.45;;
57111;SDS011;42992;49.084;19.300;2022-08-19T12:14:54;9.88;;;5.22;;
57111;SDS011;42992;49.084;19.300;2022-08-19T12:17:23;12.02;;;5.60;;
57111;SDS011;42992;49.084;19.300;2022-08-19T12:19:49;12.43;;;5.40;;
57111;SDS011;42992;49.084;19.300;2022-08-19T12:22:14;9.35;;;5.65;;
57111;SDS011;42992;49.084;19.300;2022-08-19T12:24:40;10.25;;;5.22;;
57111;SDS011;42992;49.084;19.300;2022-08-19T12:27:05;11.97;;;5.33;;
57111;SDS011;42992;49.084;19.300;2022-08-19T12:29:30;10.02;;;5.70;;
57111;SDS011;42992;49.084;19.300;2022-08-19T12:31:56;13.70;;;5.57;;
57111;SDS011;42992;49.084;19.300;2022-08-19T12:34:29;8.75;;;5.50;;
57111;SDS011;42992;49.084;19.300;2022-08-19T12:36:58;15.38;;;6.53;;
57111;SDS011;42992;49.084;19.300;2022-08-19T12:39:24;11.15;;;5.80;;
57111;SDS011;42992;49.084;19.300;2022-08-19T12:41:49;9.40;;;5.57;;
57111;SDS011;42992;49.084;19.300;2022-08-19T12:44:15;10.63;;;5.70;;
57111;SDS011;42992;49.084;19.300;2022-08-19T12:46:40;8.45;;;5.95;;
57111;SDS011;42992;49.084;19.300;2022-08-19T12:49:05;11.43;;;5.60;;
57111;SDS011;42992;49.084;19.300;2022-08-19T12:51:30;7.80;;;5.28;;
57111;SDS011;42992;49.084;19.300;2022-08-19T12:53:56;10.73;;;6.13;;
57111;SDS011;42992;49.084;19.300;2022-08-19T12:56:21;12.82;;;6.10;;
57111;SDS011;42992;49.084;19.300;2022-08-19T12:58:47;9.30;;;5.60;;
57111;SDS011;42992;49.084;19.300;2022-08-19T13:01:13;9.13;;;6.00;;
57111;SDS011;42992;49.084;19.300;2022-08-19T13:03:39;8.30;;;5.47;;
57111;SDS011;42992;49.084;19.300;2022-08-19T13:06:05;10.55;;;5.47;;
57111;SDS011;42992;49.084;19.300;2022-08-19T13:08:30;13.45;;;6.03;;
57111;SDS011;42992;49.084;19.300;2022-08-19T13:10:55;7.63;;;5.63;;
57111;SDS011;42992;49.084;19.300;2022-08-19T13:13:20;9.77;;;6.13;;
57111;SDS011;42992;49.084;19.300;2022-08-19T13:15:46;9.32;;;6.00;;
57111;SDS011;42992;49.084;19.300;2022-08-19T13:18:12;9.05;;;5.68;;
57111;SDS011;42992;49.084;19.300;2022-08-19T13:20:38;8.10;;;5.60;;
57111;SDS011;42992;49.084;19.300;2022-08-19T13:23:05;8.60;;;5.97;;
57111;SDS011;42992;49.084;19.300;2022-08-19T13:25:30;9.00;;;6.25;;
57111;SDS011;42992;49.084;19.300;2022-08-19T13:27:56;11.80;;;6.25;;
57111;SDS011;42992;49.084;19.300;2022-08-19T13:30:21;12.13;;;5.70;;
57111;SDS011;42992;49.084;19.300;2022-08-19T13:33:05;7.78;;;5.55;;
57111;SDS011;42992;49.084;19.300;2022-08-19T13:35:40;10.25;;;5.93;;
57111;SDS011;42992;49.084;19.300;2022-08-19T13:38:07;10.52;;;5.07;;
57111;SDS011;42992;49.084;19.300;2022-08-19T13:40:32;8.77;;;5.30;;
57111;SDS011;42992;49.084;19.300;2022-08-19T13:43:01;9.10;;;5.55;;
57111;SDS011;42992;49.084;19.300;2022-08-19T13:45:27;11.52;;;5.65;;
57111;SDS011;42992;49.084;19.300;2022-08-19T13:47:54;8.07;;;5.40;;
57111;SDS011;42992;49.084;19.300;2022-08-19T13:50:22;10.85;;;5.40;;
57111;SDS011;42992;49.084;19.300;2022-08-19T13:52:48;9.30;;;5.80;;
57111;SDS011;42992;49.084;19.300;2022-08-19T13:55:13;9.38;;;5.60;;
57111;SDS011;42992;49.084;19.300;2022-08-19T13:57:39;8.93;;;5.70;;
57111;SDS011;42992;49.084;19.300;2022-08-19T14:00:09;9.40;;;5.65;;
57111;SDS011;42992;49.084;19.300;2022-08-19T14:02:36;8.85;;;5.70;;
57111;SDS011;42992;49.084;19.300;2022-08-19T14:05:02;10.05;;;5.38;;
57111;SDS011;42992;49.084;19.300;2022-08-19T14:07:28;10.85;;;5.93;;
57111;SDS011;42992;49.084;19.300;2022-08-19T14:09:53;12.32;;;5.20;;
57111;SDS011;42992;49.084;19.300;2022-08-19T14:12:19;8.48;;;5.28;;
57111;SDS011;42992;49.084;19.300;2022-08-19T14:14:45;8.35;;;5.30;;
57111;SDS011;42992;49.084;19.300;2022-08-19T14:17:10;14.00;;;5.60;;
57111;SDS011;42992;49.084;19.300;2022-08-19T14:19:36;8.83;;;5.40;;
57111;SDS011;42992;49.084;19.300;2022-08-19T14:22:01;12.93;;;5.55;;
57111;SDS011;42992;49.084;19.300;2022-08-19T14:24:26;8.43;;;4.85;;
57111;SDS011;42992;49.084;19.300;2022-08-19T14:26:52;9.38;;;5.32;;
57111;SDS011;42992;49.084;19.300;2022-08-19T14:29:17;9.27;;;4.63;;
57111;SDS011;42992;49.084;19.300;2022-08-19T14:31:45;9.85;;;5.00;;
57111;SDS011;42992;49.084;19.300;2022-08-19T14:34:10;8.75;;;4.95;;